createdAt,value
2023-04-05T00:01:34.085Z,4.63
2023-04-05T00:04:00.859Z,5.78
2023-04-05T00:06:28.935Z,4.10
2023-04-05T00:08:58.775Z,3.15
2023-04-05T00:11:29.835Z,3.60
2023-04-05T00:13:56.731Z,5.70
2023-04-05T00:16:23.094Z,5.80
2023-04-05T00:18:52.549Z,4.78
2023-04-05T00:21:21.856Z,5.20
2023-04-05T00:23:52.381Z,4.53
2023-04-05T00:26:19.524Z,4.60
2023-04-05T00:28:46.859Z,3.38
2023-04-05T00:31:13.598Z,5.30
2023-04-05T00:33:39.945Z,4.20
2023-04-05T00:36:13.738Z,5.70
2023-04-05T00:38:40.736Z,4.30
2023-04-05T00:41:07.262Z,2.92
2023-04-05T00:43:35.416Z,6.25
2023-04-05T00:46:02.317Z,3.50
2023-04-05T00:48:29.146Z,4.07
2023-04-05T00:50:55.776Z,2.00
2023-04-05T00:53:22.224Z,2.22
2023-04-05T00:55:49.264Z,6.85
2023-04-05T00:58:18.112Z,3.85
2023-04-05T01:00:47.504Z,3.88
2023-04-05T01:03:14.124Z,2.65
2023-04-05T01:05:43.428Z,5.47
2023-04-05T01:08:19.039Z,5.75
2023-04-05T01:10:51.362Z,5.97
2023-04-05T01:13:17.769Z,6.63
2023-04-05T01:15:47.012Z,5.57
2023-04-05T01:18:14.022Z,4.38
2023-04-05T01:20:45.163Z,3.13
2023-04-05T01:23:31.090Z,5.32
2023-04-05T01:26:06.776Z,4.32
2023-04-05T01:28:52.521Z,6.50
2023-04-05T01:31:35.520Z,4.70
2023-04-05T01:34:05.840Z,3.90
2023-04-05T01:36:40.789Z,5.57
2023-04-05T01:39:08.845Z,5.53
2023-04-05T01:41:35.375Z,4.57
2023-04-05T01:44:01.771Z,6.05
2023-04-05T01:46:28.210Z,4.07
2023-04-05T01:48:54.600Z,5.40
2023-04-05T01:51:21.183Z,5.35
2023-04-05T01:53:47.502Z,4.50
2023-04-05T01:56:13.963Z,6.72
2023-04-05T01:58:40.334Z,5.20
2023-04-05T02:01:06.768Z,5.65
2023-04-05T02:03:33.286Z,4.00
2023-04-05T02:05:59.611Z,3.95
2023-04-05T02:08:26.058Z,4.68
2023-04-05T02:10:55.544Z,5.35
2023-04-05T02:13:25.789Z,4.55
2023-04-05T02:15:52.552Z,3.88
2023-04-05T02:18:22.321Z,5.57
2023-04-05T02:20:49.934Z,4.45
2023-04-05T02:23:16.422Z,4.00
2023-04-05T02:25:42.848Z,4.03
2023-04-05T02:28:11.344Z,3.67
2023-04-05T02:30:38.764Z,4.88
2023-04-05T02:33:05.524Z,5.00
2023-04-05T02:35:31.974Z,4.00
2023-04-05T02:37:58.390Z,4.95
2023-04-05T02:40:25.318Z,4.72
2023-04-05T02:42:51.646Z,4.07
2023-04-05T02:45:18.044Z,2.03
2023-04-05T02:47:44.421Z,3.00
2023-04-05T02:50:10.776Z,3.63
2023-04-05T02:52:37.649Z,2.60
2023-04-05T02:55:06.345Z,2.58
2023-04-05T02:57:32.744Z,2.13
2023-04-05T02:59:59.195Z,4.57
2023-04-05T03:02:25.529Z,2.60
2023-04-05T03:04:53.346Z,3.95
2023-04-05T03:07:19.685Z,3.17
2023-04-05T03:09:46.526Z,2.38
2023-04-05T03:12:13.175Z,4.63
2023-04-05T03:14:39.824Z,1.90
2023-04-05T03:17:06.358Z,4.45
2023-04-05T03:19:33.001Z,3.67
2023-04-05T03:21:59.361Z,3.95
2023-04-05T03:24:25.687Z,1.50
2023-04-05T03:26:52.073Z,3.92
2023-04-05T03:29:18.455Z,2.58
2023-04-05T03:31:45.432Z,2.67
2023-04-05T03:34:11.848Z,3.60
2023-04-05T03:36:44.408Z,2.65
2023-04-05T03:39:11.652Z,3.25
2023-04-05T03:41:38.483Z,2.65
2023-04-05T03:44:04.956Z,1.80
2023-04-05T03:46:31.718Z,1.98
2023-04-05T03:48:59.051Z,1.38
2023-04-05T03:51:25.726Z,3.88
2023-04-05T03:53:52.064Z,3.10
2023-04-05T03:56:18.590Z,4.53
2023-04-05T03:58:45.515Z,3.45
2023-04-05T04:01:12.422Z,4.20
2023-04-05T04:03:39.152Z,4.57
2023-04-05T04:06:06.317Z,4.50
2023-04-05T04:08:32.798Z,4.13
2023-04-05T04:10:59.268Z,2.85
2023-04-05T04:13:25.762Z,3.90
2023-04-05T04:15:52.390Z,4.28
2023-04-05T04:18:18.742Z,5.28
2023-04-05T04:20:45.527Z,2.08
2023-04-05T04:23:14.610Z,2.60
2023-04-05T04:25:42.278Z,3.53
2023-04-05T04:28:09.480Z,3.70
2023-04-05T04:30:35.896Z,3.88
2023-04-05T04:33:06.678Z,3.40
2023-04-05T04:35:39.122Z,4.15
2023-04-05T04:38:06.246Z,4.10
2023-04-05T04:40:41.168Z,3.75
2023-04-05T04:43:10.332Z,4.30
2023-04-05T04:45:37.975Z,3.30
2023-04-05T04:48:05.120Z,2.05
2023-04-05T04:50:32.115Z,2.70
2023-04-05T04:52:59.042Z,2.70
2023-04-05T04:55:26.031Z,3.90
2023-04-05T04:57:52.856Z,2.28
2023-04-05T05:00:20.594Z,3.35
2023-04-05T05:02:47.211Z,3.38
2023-04-05T05:05:13.872Z,4.28
2023-04-05T05:07:44.095Z,3.50
2023-04-05T05:10:11.121Z,2.90
2023-04-05T05:12:38.201Z,3.85
2023-04-05T05:15:04.829Z,3.30
2023-04-05T05:17:32.432Z,2.72
2023-04-05T05:20:00.415Z,2.83
2023-04-05T05:22:27.364Z,3.22
2023-04-05T05:24:53.957Z,2.53
2023-04-05T05:27:21.493Z,3.97
2023-04-05T05:29:47.813Z,3.90
2023-04-05T05:32:15.986Z,3.58
2023-04-05T05:34:43.214Z,3.70
2023-04-05T05:37:09.580Z,3.78
2023-04-05T05:39:39.093Z,4.90
2023-04-05T05:42:05.949Z,4.45
2023-04-05T05:44:32.581Z,3.83
2023-04-05T05:46:58.950Z,3.15
2023-04-05T05:49:25.541Z,5.40
2023-04-05T05:51:52.767Z,3.40
2023-04-05T05:54:19.238Z,3.45
2023-04-05T05:56:45.684Z,4.65
2023-04-05T05:59:12.775Z,3.22
2023-04-05T06:01:42.525Z,3.33
2023-04-05T06:04:09.585Z,5.65
2023-04-05T06:06:37.723Z,3.42
2023-04-05T06:09:05.234Z,3.45
2023-04-05T06:11:31.640Z,3.15
2023-04-05T06:13:58.232Z,4.15
2023-04-05T06:16:24.686Z,3.38
2023-04-05T06:18:51.225Z,2.20
2023-04-05T06:21:17.749Z,2.25
2023-04-05T06:23:44.163Z,2.72
2023-04-05T06:26:16.523Z,4.13
2023-04-05T06:28:42.898Z,4.72
2023-04-05T06:31:10.380Z,3.08
2023-04-05T06:33:37.832Z,4.90
2023-04-05T06:36:04.303Z,4.75
2023-04-05T06:38:30.801Z,4.38
2023-04-05T06:40:57.092Z,5.03
2023-04-05T06:43:23.405Z,5.65
2023-04-05T06:45:49.802Z,5.35
2023-04-05T06:48:16.205Z,4.65
2023-04-05T06:50:42.892Z,4.50
2023-04-05T06:53:09.447Z,4.80
2023-04-05T06:55:35.837Z,4.32
2023-04-05T06:58:02.250Z,4.60
2023-04-05T07:00:28.622Z,6.20
2023-04-05T07:02:55.040Z,5.28
2023-04-05T07:05:21.457Z,5.70
2023-04-05T07:07:48.849Z,7.47
2023-04-05T07:10:15.607Z,3.42
2023-04-05T07:12:41.966Z,4.70
2023-04-05T07:15:08.607Z,6.30
2023-04-05T07:17:35.211Z,3.72
2023-04-05T07:20:01.802Z,2.22
2023-04-05T07:22:28.156Z,4.10
2023-04-05T07:24:55.632Z,4.68
2023-04-05T07:27:22.295Z,5.45
2023-04-05T07:29:48.785Z,6.18
2023-04-05T07:32:15.397Z,6.10
2023-04-05T07:34:42.222Z,6.88
2023-04-05T07:37:08.657Z,5.88
2023-04-05T07:39:35.728Z,4.63
2023-04-05T07:42:02.226Z,5.07
2023-04-05T07:44:28.669Z,4.32
2023-04-05T07:46:55.119Z,6.40
2023-04-05T07:49:25.891Z,1.80
2023-04-05T07:51:54.351Z,7.10
2023-04-05T07:54:20.706Z,6.25
2023-04-05T07:56:47.184Z,4.40
2023-04-05T07:59:14.913Z,8.15
2023-04-05T08:01:41.627Z,6.38
2023-04-05T08:04:08.126Z,5.50
2023-04-05T08:06:34.600Z,3.78
2023-04-05T08:09:01.038Z,6.47
2023-04-05T08:11:27.454Z,4.20
2023-04-05T08:13:54.399Z,6.78
2023-04-05T08:16:20.790Z,6.85
2023-04-05T08:18:47.523Z,5.72
2023-04-05T08:21:13.961Z,6.78
2023-04-05T08:23:40.440Z,4.55
2023-04-05T08:26:07.767Z,6.57
2023-04-05T08:28:34.561Z,5.45
2023-04-05T08:31:00.890Z,6.70
2023-04-05T08:33:30.957Z,6.45
2023-04-05T08:35:57.669Z,5.00
2023-04-05T08:38:24.038Z,4.95
2023-04-05T08:40:50.452Z,7.00
2023-04-05T08:43:22.943Z,5.88
2023-04-05T08:45:50.694Z,5.53
2023-04-05T08:48:17.551Z,7.60
2023-04-05T08:50:53.421Z,6.43
2023-04-05T09:00:39.351Z,5.53
2023-04-05T09:03:06.362Z,6.63
2023-04-05T09:05:33.977Z,5.85
2023-04-05T09:08:01.504Z,5.63
2023-04-05T09:10:27.877Z,7.70
2023-04-05T09:12:54.341Z,5.35
2023-04-05T09:15:24.263Z,6.55
2023-04-05T09:17:51.050Z,7.13
2023-04-05T09:20:17.421Z,6.68
2023-04-05T09:22:47.291Z,7.50
2023-04-05T09:25:31.761Z,7.18
2023-04-05T09:28:03.223Z,7.13
2023-04-05T09:30:29.624Z,6.28
2023-04-05T09:32:56.473Z,7.85
2023-04-05T09:35:24.355Z,5.20
2023-04-05T09:37:53.432Z,7.40
2023-04-05T09:40:19.977Z,6.97
2023-04-05T09:42:46.523Z,5.35
2023-04-05T09:45:13.480Z,3.95
2023-04-05T09:47:41.280Z,6.60
2023-04-05T09:50:16.432Z,3.83
2023-04-05T09:52:43.878Z,7.82
2023-04-05T09:55:10.929Z,7.50
2023-04-05T09:57:38.767Z,4.10
2023-04-05T10:00:06.159Z,2.53
2023-04-05T10:02:37.396Z,8.25
2023-04-05T10:05:06.487Z,6.95
2023-04-05T10:07:33.194Z,6.50
2023-04-05T10:09:59.721Z,7.13
2023-04-05T10:12:30.159Z,6.72
2023-04-05T10:14:57.123Z,6.57
2023-04-05T10:17:27.158Z,5.68
2023-04-05T10:20:05.679Z,8.05
2023-04-05T10:22:35.541Z,7.93
2023-04-05T10:25:06.412Z,5.07
2023-04-05T10:27:39.581Z,7.72
2023-04-05T10:30:08.817Z,6.70
2023-04-05T10:32:46.569Z,8.23
2023-04-05T10:35:17.020Z,6.05
2023-04-05T10:37:54.046Z,7.65
2023-04-05T10:40:22.173Z,7.63
2023-04-05T10:42:48.885Z,7.30
2023-04-05T10:45:19.420Z,3.53
2023-04-05T10:47:57.203Z,8.25
2023-04-05T10:50:24.259Z,8.48
2023-04-05T10:52:53.850Z,7.68
2023-04-05T10:55:21.799Z,9.23
2023-04-05T10:57:48.814Z,8.35
2023-04-05T11:00:15.641Z,6.53
2023-04-05T11:02:42.356Z,7.72
2023-04-05T11:05:28.924Z,8.15
2023-04-05T11:07:59.583Z,8.75
2023-04-05T11:10:26.410Z,8.18
2023-04-05T11:12:53.016Z,7.25
2023-04-05T11:15:28.436Z,6.75
2023-04-05T11:18:11.807Z,7.93
2023-04-05T11:20:44.760Z,8.02
2023-04-05T11:23:11.652Z,7.68
2023-04-05T11:25:41.545Z,7.90
2023-04-05T11:28:11.623Z,7.35
2023-04-05T11:30:48.460Z,7.13
2023-04-05T11:33:33.693Z,8.40
2023-04-05T11:36:00.619Z,8.30
2023-04-05T11:38:27.095Z,9.20
2023-04-05T11:41:05.056Z,5.00
2023-04-05T11:43:31.558Z,4.65
2023-04-05T11:45:57.898Z,9.38
2023-04-05T11:48:24.333Z,8.98
2023-04-05T11:50:50.765Z,7.03
2023-04-05T11:53:17.834Z,9.55
2023-04-05T11:55:47.988Z,8.07
2023-04-05T11:58:18.683Z,7.75
2023-04-05T12:00:45.574Z,9.30
2023-04-05T12:03:12.990Z,9.30
2023-04-05T12:05:46.466Z,9.30
2023-04-05T12:08:12.899Z,8.95
2023-04-05T12:10:39.296Z,8.23
2023-04-05T12:13:05.671Z,7.70
2023-04-05T12:15:36.318Z,8.43
2023-04-05T12:18:02.725Z,8.52
2023-04-05T12:20:29.206Z,8.75
2023-04-05T12:22:56.303Z,6.07
2023-04-05T12:25:23.376Z,9.73
2023-04-05T12:27:49.729Z,4.43
2023-04-05T12:30:17.727Z,9.27
2023-04-05T12:32:45.420Z,9.13
2023-04-05T12:35:20.985Z,10.35
2023-04-05T12:37:47.891Z,10.43
2023-04-05T12:40:14.462Z,10.43
2023-04-05T12:42:41.248Z,9.68
2023-04-05T12:45:12.991Z,10.48
2023-04-05T12:47:52.986Z,5.88
2023-04-05T12:50:25.366Z,10.88
2023-04-05T12:53:01.952Z,9.75
2023-04-05T12:55:29.269Z,10.40
2023-04-05T12:58:04.802Z,9.73
2023-04-05T13:00:31.199Z,8.07
2023-04-05T13:02:58.718Z,8.57
2023-04-05T13:05:26.129Z,7.05
2023-04-05T13:07:52.613Z,8.85
2023-04-05T13:10:19.765Z,7.93
2023-04-05T13:12:46.766Z,10.23
2023-04-05T13:15:14.421Z,9.10
2023-04-05T13:17:45.539Z,9.50
2023-04-05T13:20:12.297Z,10.43
2023-04-05T13:22:39.120Z,9.63
2023-04-05T13:25:05.838Z,9.10
2023-04-05T13:27:32.324Z,9.38
2023-04-05T13:29:58.824Z,10.73
2023-04-05T13:32:25.298Z,12.80
2023-04-05T13:34:51.726Z,10.63
2023-04-05T13:37:18.198Z,12.48
2023-04-05T13:39:44.637Z,15.20
2023-04-05T13:42:11.041Z,13.15
2023-04-05T13:44:38.345Z,13.80
2023-04-05T13:47:04.764Z,14.40
2023-04-05T13:49:31.096Z,15.27
2023-04-05T13:51:58.811Z,14.70
2023-04-05T13:54:25.303Z,17.63
2023-04-05T13:56:51.667Z,15.02
2023-04-05T13:59:19.649Z,14.98
2023-04-05T14:01:46.838Z,10.35
2023-04-05T14:04:13.587Z,12.00
2023-04-05T14:06:40.065Z,15.30
2023-04-05T14:09:06.458Z,14.55
2023-04-05T14:11:32.951Z,14.75
2023-04-05T14:13:59.523Z,15.25
2023-04-05T14:16:26.022Z,14.30
2023-04-05T14:18:52.441Z,15.10
2023-04-05T14:21:18.822Z,12.73
2023-04-05T14:23:46.090Z,15.82
2023-04-05T14:26:12.582Z,13.02
2023-04-05T14:28:38.948Z,16.20
2023-04-05T14:31:05.421Z,12.45
2023-04-05T14:33:31.811Z,14.65
2023-04-05T14:35:58.226Z,15.50
2023-04-05T14:38:25.051Z,11.20
2023-04-05T14:40:51.426Z,15.77
2023-04-05T14:43:17.774Z,15.60
2023-04-05T14:45:44.328Z,14.70
2023-04-05T14:48:11.235Z,14.90
2023-04-05T14:50:37.743Z,12.02
2023-04-05T14:53:04.100Z,12.82
2023-04-05T14:55:30.485Z,8.90
2023-04-05T14:57:56.915Z,16.02
2023-04-05T15:00:23.741Z,14.18
2023-04-05T15:02:50.332Z,14.95
2023-04-05T15:05:16.836Z,14.07
2023-04-05T15:07:43.389Z,15.43
2023-04-05T15:10:10.041Z,13.85
2023-04-05T15:12:36.499Z,15.90
2023-04-05T15:15:02.947Z,14.77
2023-04-05T15:17:29.413Z,15.88
2023-04-05T15:19:55.891Z,16.33
2023-04-05T15:22:23.444Z,14.48
2023-04-05T15:24:49.926Z,13.90
2023-04-05T15:27:16.472Z,17.00
2023-04-05T15:29:42.923Z,14.98
2023-04-05T15:32:09.398Z,16.38
2023-04-05T15:34:35.790Z,14.93
2023-04-05T15:37:02.177Z,13.90
2023-04-05T15:39:28.561Z,13.23
2023-04-05T15:41:57.336Z,11.27
2023-04-05T15:44:23.707Z,15.55
2023-04-05T15:46:50.282Z,15.85
2023-04-05T15:49:17.693Z,15.48
2023-04-05T15:51:44.372Z,10.65
2023-04-05T15:54:10.739Z,16.77
2023-04-05T15:56:37.872Z,11.23
2023-04-05T15:59:04.646Z,15.65
2023-04-05T16:01:31.420Z,15.95
2023-04-05T16:03:57.938Z,15.82
2023-04-05T16:06:28.118Z,12.73
2023-04-05T16:08:54.545Z,15.10
2023-04-05T16:11:21.199Z,11.73
2023-04-05T16:13:47.702Z,15.98
2023-04-05T16:16:20.443Z,15.15
2023-04-05T16:18:54.268Z,14.05
2023-04-05T16:21:20.647Z,15.23
2023-04-05T16:23:47.131Z,15.73
2023-04-05T16:26:13.705Z,16.02
2023-04-05T16:28:40.406Z,11.60
2023-04-05T16:31:06.848Z,15.18
2023-04-05T16:33:33.370Z,15.13
2023-04-05T16:35:59.867Z,14.05
2023-04-05T16:38:26.713Z,12.60
2023-04-05T16:40:53.223Z,15.40
2023-04-05T16:43:19.602Z,16.63
2023-04-05T16:45:45.948Z,11.45
2023-04-05T16:48:14.657Z,12.73
2023-04-05T16:50:41.729Z,15.23
2023-04-05T16:53:08.142Z,15.02
2023-04-05T16:55:34.533Z,15.27
2023-04-05T16:58:00.880Z,15.13
2023-04-05T17:00:27.290Z,15.13
2023-04-05T17:02:53.692Z,13.18
2023-04-05T17:05:20.372Z,8.35
2023-04-05T17:07:47.026Z,15.35
2023-04-05T17:10:13.472Z,14.93
2023-04-05T17:12:42.105Z,16.27
2023-04-05T17:15:09.726Z,15.30
2023-04-05T17:17:36.429Z,16.95
2023-04-05T17:20:03.499Z,14.52
2023-04-05T17:22:31.646Z,15.80
2023-04-05T17:24:58.116Z,15.48
2023-04-05T17:27:25.960Z,13.07
2023-04-05T17:30:11.474Z,15.85
2023-04-05T17:32:37.966Z,16.20
2023-04-05T17:35:04.634Z,15.90
2023-04-05T17:37:31.261Z,12.43
2023-04-05T17:39:57.612Z,14.90
2023-04-05T17:42:24.195Z,13.60
2023-04-05T17:44:50.581Z,16.08
2023-04-05T17:47:17.011Z,13.75
2023-04-05T17:49:43.433Z,11.90
2023-04-05T17:52:09.950Z,15.77
2023-04-05T17:54:39.015Z,16.02
2023-04-05T17:57:06.101Z,12.98
2023-04-05T17:59:32.679Z,15.93
2023-04-05T18:01:59.132Z,12.07
2023-04-05T18:04:26.066Z,15.88
2023-04-05T18:06:52.552Z,15.20
2023-04-05T18:09:18.972Z,15.25
2023-04-05T18:11:45.353Z,16.70
2023-04-05T18:14:11.758Z,16.35
2023-04-05T18:16:38.258Z,14.20
2023-04-05T18:19:05.026Z,15.02
2023-04-05T18:21:32.137Z,14.52
2023-04-05T18:23:58.880Z,16.67
2023-04-05T18:26:25.324Z,12.60
2023-04-05T18:28:57.757Z,14.07
2023-04-05T18:31:24.200Z,10.95
2023-04-05T18:33:50.639Z,12.45
2023-04-05T18:36:17.363Z,11.38
2023-04-05T18:38:43.832Z,9.00
2023-04-05T18:41:12.302Z,16.58
2023-04-05T18:43:38.901Z,14.93
2023-04-05T18:46:05.494Z,15.82
2023-04-05T18:48:33.918Z,12.93
2023-04-05T18:51:00.314Z,12.68
2023-04-05T18:53:26.660Z,13.68
2023-04-05T18:55:53.499Z,15.90
2023-04-05T18:58:20.319Z,12.75
2023-04-05T19:00:46.715Z,9.32
2023-04-05T19:03:13.346Z,15.43
2023-04-05T19:05:39.913Z,16.15
2023-04-05T19:08:06.302Z,13.13
2023-04-05T19:10:32.768Z,14.80
2023-04-05T19:12:59.198Z,17.50
2023-04-05T19:15:25.658Z,16.77
2023-04-05T19:17:52.018Z,14.15
2023-04-05T19:20:18.430Z,10.18
2023-04-05T19:22:44.764Z,8.00
2023-04-05T19:25:11.171Z,13.60
2023-04-05T19:27:37.563Z,16.80
2023-04-05T19:30:04.427Z,16.80
2023-04-05T19:32:31.708Z,12.25
2023-04-05T19:34:59.640Z,12.38
2023-04-05T19:37:26.321Z,14.38
2023-04-05T19:39:54.274Z,15.80
2023-04-05T19:42:21.323Z,14.88
2023-04-05T19:44:51.747Z,15.20
2023-04-05T19:47:21.759Z,12.00
2023-04-05T19:49:50.315Z,16.23
2023-04-05T19:52:35.219Z,16.48
2023-04-05T19:55:02.373Z,10.13
2023-04-05T19:57:28.892Z,12.02
2023-04-05T19:59:55.298Z,11.65
2023-04-05T20:02:48.138Z,9.57
2023-04-05T20:05:16.214Z,13.88
2023-04-05T20:07:42.646Z,10.95
2023-04-05T20:10:16.213Z,14.70
2023-04-05T20:12:42.641Z,16.77
2023-04-05T20:15:11.530Z,16.05
2023-04-05T20:17:41.588Z,17.02
2023-04-05T20:20:09.428Z,14.93
2023-04-05T20:22:36.898Z,13.85
2023-04-05T20:25:11.566Z,14.90
2023-04-05T20:27:38.049Z,14.88
2023-04-05T20:30:08.857Z,15.32
2023-04-05T20:32:36.004Z,10.95
2023-04-05T20:35:02.531Z,16.65
2023-04-05T20:37:29.123Z,9.07
2023-04-05T20:39:55.535Z,13.20
2023-04-05T20:42:22.078Z,12.30
2023-04-05T20:44:48.632Z,12.77
2023-04-05T20:47:15.100Z,10.10
2023-04-05T20:49:41.730Z,16.40
2023-04-05T20:52:08.957Z,10.15
2023-04-05T20:54:35.746Z,15.98
2023-04-05T20:57:02.250Z,17.75
2023-04-05T20:59:28.654Z,11.65
2023-04-05T21:01:55.228Z,12.25
2023-04-05T21:04:21.899Z,14.23
2023-04-05T21:06:48.512Z,14.90
2023-04-05T21:09:14.944Z,11.05
2023-04-05T21:11:41.317Z,11.65
2023-04-05T21:14:07.749Z,8.90
2023-04-05T21:16:34.120Z,13.48
2023-04-05T21:19:00.773Z,10.70
2023-04-05T21:21:27.268Z,11.88
2023-04-05T21:23:53.760Z,12.80
2023-04-05T21:26:24.170Z,7.57
2023-04-05T21:28:50.659Z,15.45
2023-04-05T21:31:17.085Z,13.55
2023-04-05T21:33:43.610Z,6.88
2023-04-05T21:36:10.047Z,9.48
2023-04-05T21:38:36.411Z,13.15
2023-04-05T21:41:03.034Z,14.65
2023-04-05T21:43:29.361Z,11.20
2023-04-05T21:45:55.919Z,15.38
2023-04-05T21:48:24.525Z,13.23
2023-04-05T21:50:50.894Z,15.57
2023-04-05T21:53:17.308Z,8.02
2023-04-05T21:55:43.638Z,10.23
2023-04-05T21:58:10.073Z,9.52
2023-04-05T22:00:36.690Z,10.95
2023-04-05T22:03:03.282Z,6.85
2023-04-05T22:05:37.830Z,12.38
2023-04-05T22:08:06.264Z,13.20
2023-04-05T22:10:33.438Z,6.72
2023-04-05T22:13:00.047Z,6.40
2023-04-05T22:15:26.709Z,10.02
2023-04-05T22:17:53.345Z,15.50
2023-04-05T22:20:19.709Z,10.38
2023-04-05T22:22:46.084Z,6.80
2023-04-05T22:25:12.761Z,6.40
2023-04-05T22:27:39.424Z,12.32
2023-04-05T22:30:08.075Z,13.13
2023-04-05T22:32:35.195Z,7.50
2023-04-05T22:35:01.676Z,9.32
2023-04-05T22:37:34.432Z,10.38
2023-04-05T22:40:01.234Z,13.05
2023-04-05T22:42:27.581Z,10.52
2023-04-05T22:44:53.892Z,11.02
2023-04-05T22:47:21.194Z,13.68
2023-04-05T22:49:47.602Z,12.88
2023-04-05T22:52:14.022Z,13.10
2023-04-05T22:54:40.395Z,12.30
2023-04-05T22:57:06.852Z,5.10
2023-04-05T22:59:38.206Z,3.85
2023-04-05T23:02:04.782Z,14.32
2023-04-05T23:04:31.253Z,15.35
2023-04-05T23:06:58.420Z,13.75
2023-04-05T23:09:25.322Z,12.32
2023-04-05T23:11:51.830Z,13.02
2023-04-05T23:14:18.176Z,14.95
2023-04-05T23:16:44.640Z,14.13
2023-04-05T23:19:11.124Z,14.15
2023-04-05T23:21:37.624Z,8.82
2023-04-05T23:24:06.029Z,15.98
2023-04-05T23:26:32.447Z,12.63
2023-04-05T23:28:58.893Z,12.73
2023-04-05T23:31:25.523Z,13.82
2023-04-05T23:33:51.950Z,14.02
2023-04-05T23:36:18.631Z,14.35
2023-04-05T23:38:45.077Z,15.70
2023-04-05T23:41:11.418Z,12.98
2023-04-05T23:43:37.780Z,11.65
2023-04-05T23:46:04.269Z,12.65
2023-04-05T23:48:31.181Z,12.02
2023-04-05T23:50:57.686Z,13.82
2023-04-05T23:53:24.178Z,15.00
2023-04-05T23:55:53.392Z,14.48
2023-04-05T23:58:20.072Z,15.45
